Time;durP1;ratioP1;P1;durP2;ratioP2;P2;SDS_P1;SDS_P2;PMS_P1;PMS_P2;Temp;Humidity;BMP_temperature;BMP_pressure;BME280_temperature;BME280_humidity;BME280_pressure;Samples;Min_cycle;Max_cycle;Signal;HPM_P1;HPM_P2
2022/12/03 00:01:11;;;;;;;1999.90;999.90;;;;;;;2.15;100.00;94367.94;4977500;28;20180;-63
2022/12/03 00:03:36;;;;;;;1999.90;999.90;;;;;;;2.17;100.00;94366.41;4976919;28;20266;-63
2022/12/03 00:06:02;;;;;;;1999.90;999.90;;;;;;;2.15;100.00;94362.56;4976757;28;20266;-62
2022/12/03 00:08:27;;;;;;;1999.90;999.90;;;;;;;2.04;100.00;94367.84;4977730;28;20184;-73
2022/12/03 00:10:53;;;;;;;1999.90;999.90;;;;;;;2.12;100.00;94358.66;4976610;28;20187;-63
2022/12/03 00:13:18;;;;;;;1999.90;999.90;;;;;;;2.14;100.00;94361.78;4977035;28;20267;-63
2022/12/03 00:15:43;;;;;;;1999.90;999.90;;;;;;;2.02;100.00;94370.16;4977303;28;20191;-63
2022/12/03 00:18:09;;;;;;;1999.90;999.90;;;;;;;1.99;100.00;94375.50;4977024;28;20274;-64
2022/12/03 00:20:34;;;;;;;1999.90;999.90;;;;;;;2.06;100.00;94365.56;4976397;28;20228;-62
2022/12/03 00:22:59;;;;;;;1999.90;999.90;;;;;;;2.00;100.00;94380.50;4976813;28;20585;-62
2022/12/03 00:25:25;;;;;;;1999.90;999.90;;;;;;;1.86;100.00;94383.09;4976742;28;20528;-61
2022/12/03 00:27:50;;;;;;;1999.90;999.90;;;;;;;1.84;100.00;94400.75;4976479;28;20186;-73
2022/12/03 00:30:16;;;;;;;1999.90;999.90;;;;;;;1.75;100.00;94397.63;4976664;28;20290;-61
2022/12/03 00:32:41;;;;;;;1999.90;999.90;;;;;;;1.68;100.00;94402.94;4975568;28;20180;-62
2022/12/03 00:35:07;;;;;;;1999.90;999.90;;;;;;;1.78;100.00;94392.25;4976504;28;20645;-62
2022/12/03 00:37:34;;;;;;;1999.90;999.90;;;;;;;1.75;100.00;94403.75;4976663;28;20191;-61
2022/12/03 00:39:59;;;;;;;1999.90;999.90;;;;;;;1.71;100.00;94402.94;4976379;28;20208;-61
2022/12/03 00:42:25;;;;;;;1999.90;999.90;;;;;;;1.77;100.00;94396.09;4976230;28;20183;-61
2022/12/03 00:44:50;;;;;;;1999.90;999.90;;;;;;;1.69;100.00;94399.88;4976415;28;20178;-64
2022/12/03 00:47:15;;;;;;;1999.90;999.90;;;;;;;1.72;100.00;94387.59;4976132;28;20626;-62
2022/12/03 00:49:41;;;;;;;1999.90;999.90;;;;;;;1.70;100.00;94390.66;4976420;28;20173;-62
2022/12/03 00:52:06;;;;;;;1999.90;999.90;;;;;;;1.66;100.00;94389.84;4976141;28;20238;-64
2022/12/03 00:54:31;;;;;;;1999.90;999.90;;;;;;;1.60;100.00;94380.56;4976243;28;20190;-62
2022/12/03 00:56:57;;;;;;;1999.90;999.90;;;;;;;1.62;100.00;94383.66;4976166;28;20176;-63
2022/12/03 00:59:22;;;;;;;1999.90;999.90;;;;;;;1.67;100.00;94377.19;4977083;28;20207;-63
2022/12/03 01:01:47;;;;;;;1999.90;999.90;;;;;;;1.60;100.00;94375.19;4975856;28;20648;-62
2022/12/03 01:04:13;;;;;;;1999.90;999.90;;;;;;;1.67;100.00;94372.56;4976572;28;20245;-63
2022/12/03 01:06:38;;;;;;;1999.90;999.90;;;;;;;1.59;100.00;94379.03;4976519;28;20174;-60
2022/12/03 01:09:04;;;;;;;1999.90;999.90;;;;;;;1.53;100.00;94372.44;4975702;28;20181;-60
2022/12/03 01:11:39;;;;;;;1999.90;999.90;;;;;;;1.55;100.00;94372.84;4975715;28;20212;-60
2022/12/03 01:14:10;;;;;;;1999.90;999.90;;;;;;;1.50;100.00;94375.88;4976405;28;20205;-61
2022/12/03 01:16:36;;;;;;;1999.90;999.90;;;;;;;1.45;100.00;94378.16;4975327;28;20205;-60
2022/12/03 01:19:02;;;;;;;1999.90;999.90;;;;;;;1.35;100.00;94373.44;4975983;28;20647;-59
2022/12/03 01:21:27;;;;;;;1999.90;999.90;;;;;;;1.27;100.00;94380.63;4992840;28;20690;-62
2022/12/03 01:23:53;;;;;;;1999.90;999.90;;;;;;;1.33;100.00;94376.47;4978968;28;20178;-63
2022/12/03 01:26:18;;;;;;;1999.90;999.90;;;;;;;1.25;100.00;94374.88;4978606;28;20177;-72
2022/12/03 01:28:43;;;;;;;1999.90;999.90;;;;;;;1.34;100.00;94374.56;4978791;28;20183;-73
2022/12/03 01:33:53;;;;;;;1999.90;999.90;;;;;;;1.31;100.00;94372.63;4996290;28;20580;-69
2022/12/03 01:36:18;;;;;;;1999.90;999.90;;;;;;;1.28;100.00;94363.38;4978635;28;20175;-68
2022/12/03 01:38:43;;;;;;;1999.90;999.90;;;;;;;1.17;100.00;94375.91;4978581;28;20202;-68
2022/12/03 01:41:09;;;;;;;1999.90;999.90;;;;;;;1.07;100.00;94378.50;4978226;28;20178;-62
2022/12/03 01:43:35;;;;;;;1999.90;999.90;;;;;;;1.13;100.00;94372.41;4979202;28;20172;-66
2022/12/03 01:46:01;;;;;;;1999.90;999.90;;;;;;;1.11;100.00;94373.94;4978919;28;20180;-64
2022/12/03 01:48:31;;;;;;;1999.90;999.90;;;;;;;1.04;100.00;94369.28;4978414;28;20207;-64
2022/12/03 01:50:56;;;;;;;1999.90;999.90;;;;;;;1.13;100.00;94367.03;4978704;28;20645;-65
2022/12/03 01:53:22;;;;;;;1999.90;999.90;;;;;;;1.22;100.00;94356.78;4978846;28;20183;-64
2022/12/03 01:55:47;;;;;;;1999.90;999.90;;;;;;;1.14;100.00;94357.88;4978363;28;20184;-65
2022/12/03 01:58:14;;;;;;;1999.90;999.90;;;;;;;1.15;100.00;94359.41;4978326;28;20174;-62
2022/12/03 02:00:40;;;;;;;1999.90;999.90;;;;;;;1.06;100.00;94348.16;4978057;28;20287;-63
2022/12/03 02:03:18;;;;;;;1999.90;999.90;;;;;;;1.08;100.00;94337.81;4978244;28;20277;-73
2022/12/03 02:05:43;;;;;;;1999.90;999.90;;;;;;;1.11;100.00;94337.09;4977903;28;20207;-73
2022/12/03 02:08:29;;;;;;;1999.90;999.90;;;;;;;1.08;100.00;94332.44;4978489;28;20181;-72
2022/12/03 02:10:56;;;;;;;1999.90;999.90;;;;;;;1.18;100.00;94326.41;4978154;28;20515;-72
2022/12/03 02:13:22;;;;;;;1999.90;999.90;;;;;;;1.21;100.00;94323.00;4978676;28;20178;-70
2022/12/03 02:15:47;;;;;;;1999.90;999.90;;;;;;;1.17;100.00;94332.91;4978133;28;20188;-70
2022/12/03 02:18:13;;;;;;;1999.90;999.90;;;;;;;1.08;100.00;94337.81;4978607;28;20192;-59
2022/12/03 02:20:52;;;;;;;1999.90;999.90;;;;;;;1.17;100.00;94335.59;4977704;28;20235;-62
2022/12/03 02:23:39;;;;;;;1999.90;999.90;;;;;;;1.10;100.00;94334.78;4978240;28;20181;-62
2022/12/03 02:26:04;;;;;;;1999.90;999.90;;;;;;;1.10;100.00;94324.81;4977959;28;20246;-62
2022/12/03 02:28:30;;;;;;;1999.90;999.90;;;;;;;1.15;100.00;94324.47;4978278;28;20183;-62
2022/12/03 02:30:56;;;;;;;1999.90;999.90;;;;;;;1.11;100.00;94325.56;4978408;28;20175;-62
2022/12/03 02:33:21;;;;;;;1999.90;999.90;;;;;;;1.01;100.00;94331.59;4978255;28;20535;-62
2022/12/03 02:35:47;;;;;;;1999.90;999.90;;;;;;;1.05;100.00;94327.81;4977707;28;20248;-73
2022/12/03 02:38:18;;;;;;;1999.90;999.90;;;;;;;1.05;100.00;94322.44;4977687;28;20178;-61
2022/12/03 02:40:45;;;;;;;1999.90;999.90;;;;;;;0.99;100.00;94315.09;4978225;28;20208;-61
2022/12/03 02:43:13;;;;;;;1999.90;999.90;;;;;;;1.04;100.00;94317.44;4978259;28;20188;-61
2022/12/03 02:45:42;;;;;;;1999.90;999.90;;;;;;;1.08;100.00;94310.94;4977508;28;20234;-61
2022/12/03 02:48:16;;;;;;;1999.90;999.90;;;;;;;0.98;100.00;94317.00;4977776;28;20186;-61
2022/12/03 02:50:49;;;;;;;1999.90;999.90;;;;;;;1.04;100.00;94312.84;4978244;28;20177;-61
2022/12/03 02:53:19;;;;;;;1999.90;999.90;;;;;;;1.02;100.00;94311.66;4978212;28;20248;-60
2022/12/03 02:55:45;;;;;;;1999.90;999.90;;;;;;;1.02;100.00;94309.72;4978758;28;20599;-73
2022/12/03 02:58:11;;;;;;;1999.90;999.90;;;;;;;0.96;100.00;94308.53;4982060;28;20531;-63
2022/12/03 03:00:37;;;;;;;1999.90;999.90;;;;;;;0.98;100.00;94308.94;4981280;28;20208;-62
2022/12/03 03:03:05;;;;;;;1999.90;999.90;;;;;;;0.97;100.00;94304.69;4981359;28;20180;-63
2022/12/03 03:05:32;;;;;;;1999.90;999.90;;;;;;;1.01;100.00;94300.13;4981400;28;20196;-62
2022/12/03 03:07:58;;;;;;;1999.90;999.90;;;;;;;0.90;100.00;94310.00;4981476;28;20300;-62
2022/12/03 03:10:25;;;;;;;1999.90;999.90;;;;;;;0.97;100.00;94320.81;4981272;28;20577;-62
2022/12/03 03:12:52;;;;;;;1999.90;999.90;;;;;;;0.93;100.00;94330.75;4981762;28;20201;-71
2022/12/03 03:15:19;;;;;;;1999.90;999.90;;;;;;;0.97;100.00;94320.81;4981711;28;20224;-68
2022/12/03 03:17:44;;;;;;;1999.90;999.90;;;;;;;0.97;100.00;94320.81;4981797;28;20187;-67
2022/12/03 03:20:10;;;;;;;1999.90;999.90;;;;;;;0.96;100.00;94319.28;4977744;28;20401;-67
2022/12/03 03:22:38;;;;;;;1999.90;999.90;;;;;;;0.92;100.00;94318.47;4977858;28;20572;-67
2022/12/03 03:25:07;;;;;;;1999.90;999.90;;;;;;;1.01;100.00;94304.72;4977601;28;20624;-66
2022/12/03 03:27:33;;;;;;;1999.90;999.90;;;;;;;1.02;100.00;94295.53;4977549;28;20189;-66
2022/12/03 03:29:59;;;;;;;1999.90;999.90;;;;;;;1.09;100.00;94285.63;4977971;28;20179;-59
2022/12/03 03:32:26;;;;;;;1999.90;999.90;;;;;;;1.00;100.00;94290.53;4978399;28;20179;-62
2022/12/03 03:34:52;;;;;;;1999.90;999.90;;;;;;;1.11;100.00;94294.09;4978031;28;20178;-61
2022/12/03 03:37:17;;;;;;;1999.90;999.90;;;;;;;1.05;100.00;94300.19;4977348;28;20536;-61
2022/12/03 03:39:42;;;;;;;1999.90;999.90;;;;;;;0.99;100.00;94290.91;4978039;28;20677;-61
2022/12/03 03:42:08;;;;;;;1999.90;999.90;;;;;;;0.92;100.00;94296.19;4977834;28;20183;-62
2022/12/03 03:44:34;;;;;;;1999.90;999.90;;;;;;;0.99;100.00;94280.16;4977575;28;20187;-61
2022/12/03 03:47:00;;;;;;;1999.90;999.90;;;;;;;0.99;100.00;94286.31;4977531;28;20180;-61
2022/12/03 03:49:26;;;;;;;1999.90;999.90;;;;;;;0.96;100.00;94289.72;4977489;28;20553;-66
2022/12/03 03:51:51;;;;;;;1999.90;999.90;;;;;;;0.89;100.00;94281.59;4977770;28;20186;-66
2022/12/03 03:54:17;;;;;;;1999.90;999.90;;;;;;;0.79;100.00;94287.63;4978068;28;20292;-66
2022/12/03 03:56:42;;;;;;;1999.90;999.90;;;;;;;0.86;100.00;94286.91;4977157;28;20194;-66
2022/12/03 03:59:08;;;;;;;1999.90;999.90;;;;;;;0.88;100.00;94274.69;4977652;28;20686;-68
2022/12/03 04:01:33;;;;;;;1999.90;999.90;;;;;;;0.86;100.00;94265.44;4977155;28;20586;-67
2022/12/03 04:03:59;;;;;;;1999.90;999.90;;;;;;;0.94;100.00;94265.13;4977315;28;20202;-66
2022/12/03 04:06:27;;;;;;;1999.90;999.90;;;;;;;0.73;100.00;94270.28;4977016;28;20571;-66
2022/12/03 04:08:53;;;;;;;1999.90;999.90;;;;;;;0.75;100.00;94273.38;4977948;28;20196;-61
2022/12/03 04:14:02;;;;;;;1999.90;999.90;;;;;;;0.82;100.00;94254.66;4978263;28;20175;-59
2022/12/03 04:16:27;;;;;;;1999.90;999.90;;;;;;;0.77;100.00;94254.22;4976551;28;20260;-59
2022/12/03 04:18:53;;;;;;;1999.90;999.90;;;;;;;0.87;100.00;94251.63;4976551;28;20295;-60
2022/12/03 04:24:07;;;;;;;1999.90;999.90;;;;;;;0.72;100.00;94239.22;4978252;28;20537;-59
2022/12/03 04:29:18;;;;;;;1999.90;999.90;;;;;;;0.70;100.00;94236.13;4978198;28;20185;-71
2022/12/03 04:37:11;;;;;;;1999.90;999.90;;;;;;;0.67;100.00;94231.50;4977691;28;20201;-71
2022/12/03 04:39:37;;;;;;;1999.90;999.90;;;;;;;0.68;100.00;94233.03;4976567;28;20215;-71
2022/12/03 04:42:03;;;;;;;1999.90;999.90;;;;;;;0.71;100.00;94229.63;4976409;28;20609;-71
2022/12/03 04:44:37;;;;;;;1999.90;999.90;;;;;;;0.59;100.00;94251.38;4976667;28;20183;-60
2022/12/03 04:47:09;;;;;;;1999.90;999.90;;;;;;;0.54;100.00;94249.00;4976971;28;20180;-72
2022/12/03 04:49:38;;;;;;;1999.90;999.90;;;;;;;0.65;100.00;94239.13;4976274;28;20232;-73
2022/12/03 04:52:04;;;;;;;1999.90;999.90;;;;;;;0.63;100.00;94236.06;4975911;28;20177;-73
2022/12/03 04:54:30;;;;;;;1999.90;999.90;;;;;;;0.63;100.00;94238.75;4976893;28;20184;-72
2022/12/03 04:56:55;;;;;;;1999.90;999.90;;;;;;;0.57;100.00;94237.53;4976238;28;20180;-72
2022/12/03 04:59:21;;;;;;;1999.90;999.90;;;;;;;0.70;100.00;94230.75;4975709;28;20255;-73
2022/12/03 05:01:47;;;;;;;1999.90;999.90;;;;;;;0.57;100.00;94242.91;4976304;28;20185;-71
2022/12/03 05:04:13;;;;;;;1999.90;999.90;;;;;;;0.63;100.00;94227.22;4976130;28;20290;-60
2022/12/03 05:06:39;;;;;;;1999.90;999.90;;;;;;;0.65;100.00;94230.31;4976549;28;20264;-71
2022/12/03 05:09:04;;;;;;;1999.90;999.90;;;;;;;0.50;100.00;94236.69;4975875;28;20236;-71
2022/12/03 05:11:30;;;;;;;1999.90;999.90;;;;;;;0.54;100.00;94227.50;4976076;28;20181;-72
2022/12/03 05:13:56;;;;;;;1999.90;999.90;;;;;;;0.61;100.00;94224.16;4976262;28;20507;-71
2022/12/03 05:16:21;;;;;;;1999.90;999.90;;;;;;;0.60;100.00;94226.06;4976265;28;20204;-71
2022/12/03 05:18:46;;;;;;;1999.90;999.90;;;;;;;0.62;100.00;94229.13;4975009;28;20177;-71
2022/12/03 05:21:12;;;;;;;1999.90;999.90;;;;;;;0.55;100.00;94223.72;4975481;28;20264;-62
2022/12/03 05:23:37;;;;;;;1999.90;999.90;;;;;;;0.60;100.00;94220.69;4975976;28;20181;-66
2022/12/03 05:26:03;;;;;;;1999.90;999.90;;;;;;;0.61;100.00;94214.16;4975851;28;20173;-60
2022/12/03 05:28:28;;;;;;;1999.90;999.90;;;;;;;0.75;100.00;94211.63;4975830;28;20277;-60
2022/12/03 05:30:53;;;;;;;1999.90;999.90;;;;;;;0.74;100.00;94215.44;4975671;28;20189;-60
2022/12/03 05:33:19;;;;;;;1999.90;999.90;;;;;;;0.86;100.00;94217.84;4975742;28;20233;-61
2022/12/03 05:35:45;;;;;;;1999.90;999.90;;;;;;;0.86;100.00;94217.06;4975560;28;20177;-60
2022/12/03 05:38:11;;;;;;;1999.90;999.90;;;;;;;0.88;100.00;94204.84;4975574;28;20175;-60
2022/12/03 05:40:36;;;;;;;1999.90;999.90;;;;;;;0.76;100.00;94223.13;4976081;28;20567;-62
2022/12/03 05:43:01;;;;;;;1999.90;999.90;;;;;;;0.73;100.00;94221.94;4975882;28;20170;-66
2022/12/03 05:45:35;;;;;;;1999.90;999.90;;;;;;;0.75;100.00;94211.63;4975765;28;20176;-66
2022/12/03 05:48:04;;;;;;;1999.90;999.90;;;;;;;0.71;100.00;94218.88;4975424;28;20178;-66
2022/12/03 05:50:32;;;;;;;1999.90;999.90;;;;;;;0.75;100.00;94217.00;4975763;28;20184;-66
2022/12/03 05:52:57;;;;;;;1999.90;999.90;;;;;;;0.74;100.00;94226.19;4976062;28;20174;-66
2022/12/03 05:55:23;;;;;;;1999.90;999.90;;;;;;;0.72;100.00;94230.41;4975330;28;20190;-66
2022/12/03 05:57:48;;;;;;;1999.90;999.90;;;;;;;0.75;100.00;94226.94;4975164;28;20505;-61
2022/12/03 06:00:26;;;;;;;1999.90;999.90;;;;;;;0.84;100.00;94217.44;4975293;28;20289;-62
2022/12/03 06:02:55;;;;;;;1999.90;999.90;;;;;;;0.96;100.00;94206.44;4976235;28;20176;-62
2022/12/03 06:05:21;;;;;;;1999.90;999.90;;;;;;;0.85;100.00;94212.84;4975386;28;20198;-61
2022/12/03 06:07:51;;;;;;;1999.90;999.90;;;;;;;0.98;100.00;94204.13;4975451;28;20190;-61
2022/12/03 06:10:19;;;;;;;1999.90;999.90;;;;;;;0.83;100.00;94210.53;4974851;28;20183;-61
2022/12/03 06:12:45;;;;;;;1999.90;999.90;;;;;;;0.88;100.00;94194.09;4974635;28;20263;-61
2022/12/03 06:15:11;;;;;;;1999.90;999.90;;;;;;;0.78;100.00;94210.88;4974526;28;20664;-64
2022/12/03 06:17:37;;;;;;;1999.90;999.90;;;;;;;0.86;100.00;94201.72;4975004;28;20209;-59
2022/12/03 06:20:03;;;;;;;1999.90;999.90;;;;;;;0.83;100.00;94191.72;4974701;28;20704;-58
2022/12/03 06:22:28;;;;;;;1999.90;999.90;;;;;;;0.86;100.00;94199.06;4974675;28;20202;-58
2022/12/03 06:24:54;;;;;;;1999.90;999.90;;;;;;;0.85;100.00;94192.13;4974809;28;20210;-57
2022/12/03 06:27:19;;;;;;;1999.90;999.90;;;;;;;0.75;100.00;94195.50;4974763;28;20179;-58
2022/12/03 06:29:44;;;;;;;1999.90;999.90;;;;;;;0.95;100.00;94186.06;4975325;28;20210;-57
2022/12/03 06:32:10;;;;;;;1999.90;999.90;;;;;;;0.81;100.00;94191.34;4978380;28;20173;-58
2022/12/03 06:34:35;;;;;;;1999.90;999.90;;;;;;;0.85;100.00;94194.81;4979010;28;20211;-70
2022/12/03 06:37:01;;;;;;;1999.90;999.90;;;;;;;0.80;100.00;94197.84;4978896;28;20551;-70
2022/12/03 06:39:26;;;;;;;1999.90;999.90;;;;;;;0.88;100.00;94193.31;4979036;28;20198;-60
2022/12/03 06:41:52;;;;;;;1999.90;999.90;;;;;;;0.97;100.00;94181.09;4978704;28;20324;-60
2022/12/03 06:44:20;;;;;;;1999.90;999.90;;;;;;;1.00;100.00;94185.75;4962573;28;20209;-61
2022/12/03 06:46:45;;;;;;;1999.90;999.90;;;;;;;0.94;100.00;94184.53;4943065;29;20267;-60
2022/12/03 06:49:11;;;;;;;1999.90;999.90;;;;;;;0.86;100.00;94191.00;4942346;29;20192;-64
2022/12/03 06:51:37;;;;;;;1999.90;999.90;;;;;;;0.92;100.00;94183.34;4942312;29;20286;-62
2022/12/03 06:54:03;;;;;;;1999.90;999.90;;;;;;;0.88;100.00;94186.03;4926233;29;20178;-60
2022/12/03 06:56:29;;;;;;;1999.90;999.90;;;;;;;0.96;100.00;94179.56;4942936;29;20340;-61
2022/12/03 06:58:55;;;;;;;1999.90;999.90;;;;;;;0.92;100.00;94176.09;4942129;29;20733;-61
2022/12/03 07:01:20;;;;;;;1999.90;999.90;;;;;;;0.96;100.00;94184.94;4942154;29;20179;-60
2022/12/03 07:03:45;;;;;;;1999.90;999.90;;;;;;;0.92;100.00;94181.47;4942009;29;20209;-61
2022/12/03 07:06:11;;;;;;;1999.90;999.90;;;;;;;0.91;100.00;94182.56;4941918;29;20180;-60
2022/12/03 07:08:37;;;;;;;1999.90;999.90;;;;;;;0.99;100.00;94178.81;4942076;29;20277;-58
2022/12/03 07:11:02;;;;;;;1999.90;999.90;;;;;;;1.01;100.00;94176.53;4942371;29;20193;-63
2022/12/03 07:13:28;;;;;;;1999.90;999.90;;;;;;;0.98;100.00;94184.56;4941996;29;20182;-70
2022/12/03 07:15:53;;;;;;;1999.90;999.90;;;;;;;1.00;100.00;94185.75;4941658;29;20260;-71
2022/12/03 07:18:18;;;;;;;1999.90;999.90;;;;;;;1.04;100.00;94194.59;4942059;29;20187;-71
2022/12/03 07:20:44;;;;;;;1999.90;999.90;;;;;;;1.04;100.00;94197.28;4941649;29;20235;-71
2022/12/03 07:23:09;;;;;;;1999.90;999.90;;;;;;;0.82;100.00;94200.94;4943426;28;20179;-71
2022/12/03 07:25:34;;;;;;;1999.90;999.90;;;;;;;0.84;100.00;94198.63;4978182;28;20240;-70
2022/12/03 07:28:00;;;;;;;1999.90;999.90;;;;;;;0.88;100.00;94194.09;4977812;28;20176;-70
2022/12/03 07:30:26;;;;;;;1999.90;999.90;;;;;;;0.92;100.00;94196.78;4978300;28;20233;-60
2022/12/03 07:32:52;;;;;;;1999.90;999.90;;;;;;;0.89;100.00;94198.31;4978252;28;20177;-71
2022/12/03 07:35:18;;;;;;;1999.90;999.90;;;;;;;0.99;100.00;94194.94;4977683;28;20212;-72
2022/12/03 07:37:43;;;;;;;1999.90;999.90;;;;;;;1.00;100.00;94196.47;4978223;28;20216;-71
2022/12/03 07:40:09;;;;;;;1999.90;999.90;;;;;;;0.97;100.00;94191.84;4977484;28;20205;-71
2022/12/03 07:42:34;;;;;;;1999.90;999.90;;;;;;;1.06;100.00;94192.28;4977706;28;20179;-71
2022/12/03 07:45:00;;;;;;;1999.90;999.90;;;;;;;0.98;100.00;94206.06;4977932;28;20701;-71
2022/12/03 07:47:25;;;;;;;1999.90;999.90;;;;;;;0.97;100.00;94202.59;4977434;28;20187;-71
2022/12/03 07:49:50;;;;;;;1999.90;999.90;;;;;;;0.97;100.00;94207.97;4977520;28;20271;-71
2022/12/03 07:52:16;;;;;;;1999.90;999.90;;;;;;;1.11;100.00;94197.34;4977176;28;20178;-62
2022/12/03 07:54:41;;;;;;;1999.90;999.90;;;;;;;0.88;100.00;94215.59;4977326;28;20178;-62
2022/12/03 07:57:07;;;;;;;1999.90;999.90;;;;;;;0.90;100.00;94207.91;4977241;28;20181;-63
2022/12/03 07:59:33;;;;;;;1999.90;999.90;;;;;;;1.06;100.00;94200.34;4976915;28;20209;-63
2022/12/03 08:01:58;;;;;;;1999.90;999.90;;;;;;;0.97;100.00;94207.97;4977228;28;20643;-64
2022/12/03 08:04:24;;;;;;;1999.90;999.90;;;;;;;1.08;100.00;94198.06;4977048;28;20284;-63
2022/12/03 08:06:49;;;;;;;1999.90;999.90;;;;;;;1.13;100.00;94208.47;4977077;28;20176;-61
2022/12/03 08:09:15;;;;;;;1999.90;999.90;;;;;;;1.04;100.00;94213.41;4977065;28;20220;-71
2022/12/03 08:11:41;;;;;;;1999.90;999.90;;;;;;;1.03;100.00;94209.19;4976998;28;20180;-64
2022/12/03 08:14:18;;;;;;;1999.90;999.90;;;;;;;0.97;100.00;94224.09;4977055;28;20176;-64
2022/12/03 08:16:45;;;;;;;1999.90;999.90;;;;;;;1.02;100.00;94225.69;4976823;28;20181;-67
2022/12/03 08:19:12;;;;;;;1999.90;999.90;;;;;;;0.95;100.00;94225.59;4976854;28;20197;-68
2022/12/03 08:21:39;;;;;;;1999.90;999.90;;;;;;;0.96;100.00;94227.16;4976851;28;20672;-68
2022/12/03 08:24:18;;;;;;;1999.90;999.90;;;;;;;0.95;100.00;94226.38;4977488;28;20198;-67
2022/12/03 08:26:45;;;;;;;1999.90;999.90;;;;;;;1.06;100.00;94221.84;4976734;28;20191;-61
2022/12/03 08:29:13;;;;;;;1999.90;999.90;;;;;;;1.09;100.00;94226.50;4976710;28;20768;-62
2022/12/03 08:31:39;;;;;;;1999.90;999.90;;;;;;;1.00;100.00;94234.09;4977118;28;20202;-64
2022/12/03 08:34:19;;;;;;;1999.90;999.90;;;;;;;1.00;100.00;94233.31;4976538;28;20175;-62
2022/12/03 08:36:47;;;;;;;1999.90;999.90;;;;;;;1.02;100.00;94239.88;4976217;28;20187;-61
2022/12/03 08:39:24;;;;;;;1999.90;999.90;;;;;;;1.01;100.00;94246.38;4976385;28;20202;-62
2022/12/03 08:44:40;;;;;;;1999.90;999.90;;;;;;;1.14;100.00;94244.97;4977604;28;20171;-62
2022/12/03 08:47:08;;;;;;;1999.90;999.90;;;;;;;1.08;100.00;94256.41;4976248;28;20198;-64
2022/12/03 08:49:34;;;;;;;1999.90;999.90;;;;;;;1.13;100.00;94258.78;4976325;28;20214;-62
2022/12/03 08:52:05;;;;;;;1999.90;999.90;;;;;;;1.18;100.00;94255.75;4976216;28;20186;-62
2022/12/03 08:54:30;;;;;;;1999.90;999.90;;;;;;;1.10;100.00;94270.28;4975461;28;20182;-61
2022/12/03 08:56:56;;;;;;;1999.90;999.90;;;;;;;1.05;100.00;94282.13;4976560;28;20172;-62
2022/12/03 08:59:24;;;;;;;1999.90;999.90;;;;;;;1.14;100.00;94282.59;4975750;28;20200;-65
2022/12/03 09:01:52;;;;;;;1999.90;999.90;;;;;;;1.02;100.00;94280.16;4976741;28;20206;-68
2022/12/03 09:04:43;;;;;;;1999.90;999.90;;;;;;;1.13;100.00;94270.28;4975890;28;20192;-71
2022/12/03 09:07:09;;;;;;;1999.90;999.90;;;;;;;1.31;100.00;94271.22;4975772;28;20181;-62
2022/12/03 09:09:34;;;;;;;1999.90;999.90;;;;;;;1.34;100.00;94285.84;4975682;28;20170;-56
2022/12/03 09:12:01;;;;;;;1999.90;999.90;;;;;;;1.17;100.00;94295.28;4975835;28;20174;-61
2022/12/03 09:14:27;;;;;;;1999.90;999.90;;;;;;;1.26;100.00;94287.69;4976690;28;20238;-58
2022/12/03 09:16:54;;;;;;;1999.90;999.90;;;;;;;1.13;100.00;94305.22;4975689;28;20177;-64
2022/12/03 09:19:21;;;;;;;1999.90;999.90;;;;;;;1.14;100.00;94320.22;4976179;28;20203;-59
2022/12/03 09:21:46;;;;;;;1999.90;999.90;;;;;;;1.04;100.00;94342.41;4975721;28;20229;-60
2022/12/03 09:24:12;;;;;;;1999.90;999.90;;;;;;;1.13;100.00;94342.84;4976038;28;20182;-69
2022/12/03 09:26:37;;;;;;;1999.90;999.90;;;;;;;1.15;100.00;94342.50;4976163;28;20169;-69
2022/12/03 09:29:03;;;;;;;1999.90;999.90;;;;;;;1.14;100.00;94336.38;4975426;28;20211;-75
2022/12/03 09:31:28;;;;;;;1999.90;999.90;;;;;;;1.27;100.00;94344.94;4975592;28;20183;-78
2022/12/03 09:33:53;;;;;;;1999.90;999.90;;;;;;;1.20;100.00;94347.56;4975644;28;20200;-78
2022/12/03 09:36:19;;;;;;;1999.90;999.90;;;;;;;1.29;100.00;94343.41;4975107;28;20172;-77
2022/12/03 09:38:44;;;;;;;1999.90;999.90;;;;;;;1.20;100.00;94351.00;4975305;28;20534;-64
2022/12/03 09:41:25;;;;;;;1999.90;999.90;;;;;;;1.21;100.00;94349.09;4934481;28;20271;-65
2022/12/03 09:43:52;;;;;;;1999.90;999.90;;;;;;;1.19;100.00;94354.06;4975629;28;20178;-63
2022/12/03 09:46:19;;;;;;;1999.90;999.90;;;;;;;1.37;100.00;94350.41;4975365;28;20230;-63
2022/12/03 09:48:45;;;;;;;1999.90;999.90;;;;;;;1.24;100.00;94369.88;4974868;28;20290;-62
2022/12/03 09:51:11;;;;;;;1999.90;999.90;;;;;;;1.14;100.00;94367.84;4974816;28;20171;-63
2022/12/03 09:53:37;;;;;;;1999.90;999.90;;;;;;;1.11;100.00;94363.19;4975265;28;20226;-63
2022/12/03 09:56:03;;;;;;;1999.90;999.90;;;;;;;1.18;100.00;94369.41;4975393;28;20170;-64
2022/12/03 09:58:28;;;;;;;1999.90;999.90;;;;;;;1.35;100.00;94358.06;4974882;28;20272;-65
2022/12/03 10:00:54;;;;;;;1999.90;999.90;;;;;;;1.43;100.00;94357.00;4974839;28;20295;-64
2022/12/03 10:03:22;;;;;;;1999.90;999.90;;;;;;;1.24;100.00;94362.56;4974568;28;20204;-64
2022/12/03 10:05:48;;;;;;;1999.90;999.90;;;;;;;1.21;100.00;94367.91;4975259;28;20297;-64
2022/12/03 10:08:19;;;;;;;1999.90;999.90;;;;;;;1.21;100.00;94374.06;4974981;28;20620;-64
2022/12/03 10:10:46;;;;;;;1999.90;999.90;;;;;;;1.18;100.00;94374.78;4974699;28;20517;-64
2022/12/03 10:13:20;;;;;;;1999.90;999.90;;;;;;;1.28;100.00;94378.72;4975258;28;20176;-63
2022/12/03 10:15:47;;;;;;;1999.90;999.90;;;;;;;1.32;100.00;94387.59;4974750;28;20174;-66
2022/12/03 10:18:22;;;;;;;1999.90;999.90;;;;;;;1.28;100.00;94406.41;4974889;28;20219;-60
2022/12/03 10:20:49;;;;;;;1999.90;999.90;;;;;;;1.31;100.00;94394.88;4974481;28;20253;-62
2022/12/03 10:23:25;;;;;;;1999.90;999.90;;;;;;;1.35;100.00;94395.69;4974677;28;20183;-61
2022/12/03 10:25:57;;;;;;;1999.90;999.90;;;;;;;1.30;100.00;94404.09;4974303;28;20265;-61
2022/12/03 10:28:40;;;;;;;1999.90;999.90;;;;;;;1.45;100.00;94400.41;4974611;28;20285;-60
2022/12/03 10:31:10;;;;;;;1999.90;999.90;;;;;;;1.45;100.00;94400.41;4974316;28;20174;-60
2022/12/03 10:33:38;;;;;;;1999.90;999.90;;;;;;;1.47;100.00;94403.50;4974617;28;20650;-72
2022/12/03 10:36:20;;;;;;;1999.90;999.90;;;;;;;1.47;100.00;94413.50;4974507;28;20755;-58
2022/12/03 10:39:04;;;;;;;1999.90;999.90;;;;;;;1.61;100.00;94414.41;4974883;28;20269;-58
2022/12/03 10:41:29;;;;;;;1999.90;999.90;;;;;;;1.46;100.00;94438.84;4974890;28;20162;-59
2022/12/03 10:44:11;;;;;;;1999.90;999.90;;;;;;;1.39;100.00;94449.53;4974267;28;20178;-60
2022/12/03 10:46:37;;;;;;;1999.90;999.90;;;;;;;1.55;100.00;94448.16;4974747;28;20221;-59
2022/12/03 10:49:18;;;;;;;1999.90;999.90;;;;;;;1.65;100.00;94452.88;4974506;28;20559;-60
2022/12/03 10:51:47;;;;;;;1999.90;999.90;;;;;;;1.54;100.00;94483.50;4974829;28;20635;-64
2022/12/03 10:54:21;;;;;;;1999.90;999.90;;;;;;;1.35;100.00;94487.09;4974230;28;20175;-66
2022/12/03 10:56:49;;;;;;;1999.90;999.90;;;;;;;1.48;100.00;94496.50;4974333;28;20181;-63
2022/12/03 10:59:24;;;;;;;1999.90;999.90;;;;;;;1.48;100.00;94501.88;4975546;28;20697;-63
2022/12/03 11:01:51;;;;;;;1999.90;999.90;;;;;;;1.30;100.00;94506.28;4974862;28;20179;-61
2022/12/03 11:04:42;;;;;;;1999.90;999.90;;;;;;;1.43;100.00;94517.56;4974397;28;20558;-63
2022/12/03 11:07:15;;;;;;;1999.90;999.90;;;;;;;1.42;100.00;94529.47;4970197;28;20195;-63
2022/12/03 11:09:44;;;;;;;1999.90;999.90;;;;;;;1.41;100.00;94536.75;4974230;28;20175;-66
2022/12/03 11:12:21;;;;;;;1999.90;999.90;;;;;;;1.43;100.00;94542.53;4974106;28;20179;-60
2022/12/03 11:14:50;;;;;;;1999.90;999.90;;;;;;;1.28;100.00;94556.16;4973922;28;20213;-65